createdAt,value
2022-08-30T00:00:06.351Z,1017.28
2022-08-30T00:01:06.343Z,1017.30
2022-08-30T00:02:06.331Z,1017.32
2022-08-30T00:03:06.434Z,1017.32
2022-08-30T00:04:06.362Z,1017.32
2022-08-30T00:05:06.327Z,1017.31
2022-08-30T00:06:06.297Z,1017.30
2022-08-30T00:07:06.274Z,1017.29
2022-08-30T00:08:06.266Z,1017.30
2022-08-30T00:09:06.254Z,1017.34
2022-08-30T00:10:06.242Z,1017.31
2022-08-30T00:11:06.246Z,1017.35
2022-08-30T00:12:06.220Z,1017.35
2022-08-30T00:13:06.210Z,1017.36
2022-08-30T00:14:06.198Z,1017.34
2022-08-30T00:15:06.188Z,1017.32
2022-08-30T00:16:06.230Z,1017.32
2022-08-30T00:17:06.173Z,1017.36
2022-08-30T00:18:06.155Z,1017.37
2022-08-30T00:19:06.144Z,1017.37
2022-08-30T00:20:06.134Z,1017.40
2022-08-30T00:21:06.123Z,1017.41
2022-08-30T00:22:06.112Z,1017.42
2022-08-30T00:23:06.105Z,1017.43
2022-08-30T00:24:06.091Z,1017.37
2022-08-30T00:25:06.079Z,1017.39
2022-08-30T00:26:06.069Z,1017.39
2022-08-30T00:27:06.057Z,1017.37
2022-08-30T00:28:06.049Z,1017.43
2022-08-30T00:29:06.055Z,1017.41
2022-08-30T00:30:06.024Z,1017.41
2022-08-30T00:31:06.153Z,1017.38
2022-08-30T00:32:06.003Z,1017.38
2022-08-30T00:33:05.991Z,1017.39
2022-08-30T00:34:05.980Z,1017.40
2022-08-30T00:35:06.000Z,1017.40
2022-08-30T00:36:05.959Z,1017.43
2022-08-30T00:37:05.948Z,1017.49
2022-08-30T00:38:05.937Z,1017.47
2022-08-30T00:39:05.926Z,1017.46
2022-08-30T00:40:05.956Z,1017.46
2022-08-30T00:41:05.910Z,1017.42
2022-08-30T00:42:05.894Z,1017.47
2022-08-30T00:43:06.010Z,1017.43
2022-08-30T00:44:05.873Z,1017.44
2022-08-30T00:45:05.861Z,1017.43
2022-08-30T00:46:05.913Z,1017.40
2022-08-30T00:47:05.855Z,1017.45
2022-08-30T00:48:05.828Z,1017.41
2022-08-30T00:49:05.819Z,1017.42
2022-08-30T00:50:05.808Z,1017.43
2022-08-30T00:51:05.797Z,1017.43
2022-08-30T00:52:05.786Z,1017.40
2022-08-30T00:53:05.778Z,1017.38
2022-08-30T00:54:05.765Z,1017.39
2022-08-30T00:55:05.752Z,1017.37
2022-08-30T00:56:05.741Z,1017.39
2022-08-30T00:57:05.729Z,1017.38
2022-08-30T00:58:05.719Z,1017.40
2022-08-30T00:59:05.715Z,1017.41
2022-08-30T01:00:05.697Z,1017.39
2022-08-30T01:01:05.709Z,1017.41
2022-08-30T01:02:05.676Z,1017.36
2022-08-30T01:03:05.665Z,1017.37
2022-08-30T01:04:05.654Z,1017.41
2022-08-30T01:05:05.665Z,1017.42
2022-08-30T01:06:05.633Z,1017.43
2022-08-30T01:07:05.620Z,1017.47
2022-08-30T01:08:05.610Z,1017.47
2022-08-30T01:09:05.601Z,1017.52
2022-08-30T01:10:05.588Z,1017.50
2022-08-30T01:11:05.584Z,1017.51
2022-08-30T01:12:05.567Z,1017.51
2022-08-30T01:13:05.555Z,1017.54
2022-08-30T01:14:05.544Z,1017.54
2022-08-30T01:15:05.533Z,1017.50
2022-08-30T01:16:05.620Z,1017.53
2022-08-30T01:17:05.542Z,1017.51
2022-08-30T01:18:06.280Z,1017.56
2022-08-30T01:19:05.490Z,1017.55
2022-08-30T01:20:05.478Z,1017.55
2022-08-30T01:21:05.468Z,1017.53
2022-08-30T01:22:05.457Z,1017.57
2022-08-30T01:23:05.458Z,1017.56
2022-08-30T01:24:05.437Z,1017.57
2022-08-30T01:25:05.424Z,1017.57
2022-08-30T01:26:05.415Z,1017.57
2022-08-30T01:27:05.402Z,1017.56
2022-08-30T01:28:05.392Z,1017.55
2022-08-30T01:29:05.389Z,1017.56
2022-08-30T01:30:05.375Z,1017.58
2022-08-30T01:31:05.466Z,1017.56
2022-08-30T01:32:05.348Z,1017.59
2022-08-30T01:33:05.337Z,1017.56
2022-08-30T01:34:05.327Z,1017.55
2022-08-30T01:35:05.335Z,1017.53
2022-08-30T01:36:05.305Z,1017.55
2022-08-30T01:37:05.295Z,1017.53
2022-08-30T01:38:05.283Z,1017.52
2022-08-30T01:39:05.271Z,1017.54
2022-08-30T01:40:05.373Z,1017.51
2022-08-30T01:41:05.257Z,1017.51
2022-08-30T01:42:05.242Z,1017.54
2022-08-30T01:43:05.228Z,1017.51
2022-08-30T01:44:05.217Z,1017.55
2022-08-30T01:45:05.209Z,1017.52
2022-08-30T01:46:05.278Z,1017.48
2022-08-30T01:47:05.217Z,1017.48
2022-08-30T01:48:06.610Z,1017.50
2022-08-30T01:49:05.163Z,1017.53
2022-08-30T01:50:05.151Z,1017.52
2022-08-30T01:51:05.142Z,1017.52
2022-08-30T01:52:05.133Z,1017.54
2022-08-30T01:53:05.135Z,1017.52
2022-08-30T01:54:05.108Z,1017.49
2022-08-30T01:55:05.107Z,1017.52
2022-08-30T01:56:05.086Z,1017.50
2022-08-30T01:57:05.075Z,1017.51
2022-08-30T01:58:05.065Z,1017.48
2022-08-30T01:59:05.060Z,1017.49
2022-08-30T02:00:05.044Z,1017.49
2022-08-30T02:01:05.088Z,1017.47
2022-08-30T02:02:05.020Z,1017.50
2022-08-30T02:03:05.013Z,1017.50
2022-08-30T02:04:05.126Z,1017.51
2022-08-30T02:05:05.003Z,1017.49
2022-08-30T02:06:04.978Z,1017.45
2022-08-30T02:07:04.965Z,1017.47
2022-08-30T02:08:04.955Z,1017.47
2022-08-30T02:09:04.944Z,1017.46
2022-08-30T02:10:04.936Z,1017.43
2022-08-30T02:11:04.958Z,1017.43
2022-08-30T02:12:04.911Z,1017.41
2022-08-30T02:13:04.901Z,1017.40
2022-08-30T02:14:04.890Z,1017.40
2022-08-30T02:15:04.880Z,1017.41
2022-08-30T02:16:04.868Z,1017.39
2022-08-30T02:17:04.914Z,1017.40
2022-08-30T02:18:04.845Z,1017.41
2022-08-30T02:19:04.838Z,1017.40
2022-08-30T02:20:04.825Z,1017.45
2022-08-30T02:21:04.813Z,1017.46
2022-08-30T02:22:04.803Z,1017.43
2022-08-30T02:23:04.799Z,1017.42
2022-08-30T02:24:04.780Z,1017.36
2022-08-30T02:25:04.769Z,1017.41
2022-08-30T02:26:04.759Z,1017.38
2022-08-30T02:27:04.748Z,1017.34
2022-08-30T02:28:04.736Z,1017.37
2022-08-30T02:29:04.755Z,1017.38
2022-08-30T02:30:04.716Z,1017.38
2022-08-30T02:31:04.832Z,1017.34
2022-08-30T02:32:04.863Z,1017.30
2022-08-30T02:33:04.691Z,1017.34
2022-08-30T02:34:04.690Z,1017.35
2022-08-30T02:35:04.692Z,1017.33
2022-08-30T02:36:04.653Z,1017.35
2022-08-30T02:37:04.643Z,1017.35
2022-08-30T02:38:04.627Z,1017.39
2022-08-30T02:39:04.621Z,1017.39
2022-08-30T02:40:04.742Z,1017.40
2022-08-30T02:41:04.604Z,1017.38
2022-08-30T02:42:04.585Z,1017.40
2022-08-30T02:43:04.573Z,1017.40
2022-08-30T02:44:04.562Z,1017.35
2022-08-30T02:45:04.557Z,1017.35
2022-08-30T02:46:04.592Z,1017.38
2022-08-30T02:47:04.552Z,1017.33
2022-08-30T02:48:04.518Z,1017.38
2022-08-30T02:49:29.939Z,1017.38
2022-08-30T02:50:05.497Z,1017.40
2022-08-30T02:51:04.486Z,1017.39
2022-08-30T02:52:04.481Z,1017.39
2022-08-30T02:53:04.471Z,1017.39
2022-08-30T02:54:04.453Z,1017.40
2022-08-30T02:55:04.457Z,1017.37
2022-08-30T02:56:04.430Z,1017.38
2022-08-30T02:57:04.422Z,1017.35
2022-08-30T02:58:04.410Z,1017.39
2022-08-30T02:59:04.427Z,1017.39
2022-08-30T03:00:04.387Z,1017.37
2022-08-30T03:01:04.468Z,1017.40
2022-08-30T03:02:04.365Z,1017.37
2022-08-30T03:03:04.354Z,1017.39
2022-08-30T03:04:04.381Z,1017.35
2022-08-30T03:05:04.353Z,1017.38
2022-08-30T03:06:04.322Z,1017.38
2022-08-30T03:07:04.311Z,1017.38
2022-08-30T03:08:04.300Z,1017.36
2022-08-30T03:09:04.289Z,1017.38
2022-08-30T03:10:04.278Z,1017.35
2022-08-30T03:11:04.288Z,1017.37
2022-08-30T03:12:04.256Z,1017.38
2022-08-30T03:13:04.245Z,1017.37
2022-08-30T03:14:04.238Z,1017.37
2022-08-30T03:15:04.224Z,1017.38
2022-08-30T03:16:04.267Z,1017.39
2022-08-30T03:17:04.208Z,1017.37
2022-08-30T03:18:04.191Z,1017.35
2022-08-30T03:19:04.182Z,1017.38
2022-08-30T03:20:04.170Z,1017.39
2022-08-30T03:21:04.158Z,1017.39
2022-08-30T03:22:04.146Z,1017.39
2022-08-30T03:23:04.158Z,1017.36
2022-08-30T03:24:04.126Z,1017.36
2022-08-30T03:25:04.114Z,1017.36
2022-08-30T03:26:04.104Z,1017.34
2022-08-30T03:27:04.094Z,1017.35
2022-08-30T03:28:04.099Z,1017.37
2022-08-30T03:29:04.102Z,1017.40
2022-08-30T03:30:04.064Z,1017.39
2022-08-30T03:31:04.050Z,1017.41
2022-08-30T03:32:04.078Z,1017.45
2022-08-30T03:33:04.027Z,1017.40
2022-08-30T03:34:04.017Z,1017.40
2022-08-30T03:35:04.013Z,1017.44
2022-08-30T03:36:03.993Z,1017.46
2022-08-30T03:37:03.984Z,1017.46
2022-08-30T03:38:03.975Z,1017.49
2022-08-30T03:39:03.962Z,1017.46
2022-08-30T03:40:03.980Z,1017.50
2022-08-30T03:41:03.964Z,1017.49
2022-08-30T03:42:03.929Z,1017.49
2022-08-30T03:43:03.917Z,1017.51
2022-08-30T03:44:03.906Z,1017.51
2022-08-30T03:45:03.896Z,1017.47
2022-08-30T03:46:03.936Z,1017.50
2022-08-30T03:47:03.880Z,1017.50
2022-08-30T03:48:03.863Z,1017.52
2022-08-30T03:49:03.853Z,1017.49
2022-08-30T03:50:03.842Z,1017.52
2022-08-30T03:51:03.830Z,1017.53
2022-08-30T03:52:03.820Z,1017.54
2022-08-30T03:53:03.816Z,1017.57
2022-08-30T03:54:03.799Z,1017.58
2022-08-30T03:55:03.787Z,1017.58
2022-08-30T03:56:03.776Z,1017.56
2022-08-30T03:57:03.768Z,1017.62
2022-08-30T03:58:03.755Z,1017.59
2022-08-30T03:59:03.765Z,1017.62
2022-08-30T04:00:03.734Z,1017.59
2022-08-30T04:01:03.811Z,1017.62
2022-08-30T04:02:03.763Z,1017.61
2022-08-30T04:03:03.700Z,1017.55
2022-08-30T04:04:03.691Z,1017.55
2022-08-30T04:05:03.685Z,1017.60
2022-08-30T04:06:03.669Z,1017.54
2022-08-30T04:07:03.656Z,1017.56
2022-08-30T04:08:03.646Z,1017.57
2022-08-30T04:09:03.635Z,1017.60
2022-08-30T04:10:03.624Z,1017.57
2022-08-30T04:11:05.108Z,1017.59
2022-08-30T04:12:03.604Z,1017.58
2022-08-30T04:13:03.592Z,1017.63
2022-08-30T04:14:03.581Z,1017.64
2022-08-30T04:15:03.570Z,1017.63
2022-08-30T04:16:03.600Z,1017.64
2022-08-30T04:17:03.578Z,1017.68
2022-08-30T04:18:03.536Z,1017.70
2022-08-30T04:19:03.526Z,1017.68
2022-08-30T04:20:03.513Z,1017.70
2022-08-30T04:21:03.503Z,1017.66
2022-08-30T04:22:03.495Z,1017.71
2022-08-30T04:23:03.497Z,1017.71
2022-08-30T04:24:03.470Z,1017.74
2022-08-30T04:25:03.460Z,1017.75
2022-08-30T04:26:03.450Z,1017.76
2022-08-30T04:27:03.438Z,1017.80
2022-08-30T04:28:03.427Z,1017.78
2022-08-30T04:29:03.437Z,1017.80
2022-08-30T04:30:03.405Z,1017.78
2022-08-30T04:32:19.063Z,1017.81
2022-08-30T04:33:19.049Z,1017.83
2022-08-30T04:34:19.066Z,1017.80
2022-08-30T04:35:19.027Z,1017.80
2022-08-30T04:36:19.019Z,1017.83
2022-08-30T04:37:19.006Z,1017.84
2022-08-30T04:38:18.994Z,1017.89
2022-08-30T04:39:18.983Z,1017.84
2022-08-30T04:40:19.055Z,1017.86
2022-08-30T04:41:18.961Z,1017.85
2022-08-30T04:42:18.951Z,1017.82
2022-08-30T04:43:18.941Z,1017.85
2022-08-30T04:44:19.525Z,1017.83
2022-08-30T04:45:18.918Z,1017.88
2022-08-30T04:46:19.111Z,1017.91
2022-08-30T04:47:18.895Z,1017.89
2022-08-30T04:48:18.885Z,1017.90
2022-08-30T04:49:18.874Z,1017.92
2022-08-30T04:50:18.864Z,1017.90
2022-08-30T04:51:18.854Z,1017.91
2022-08-30T04:52:18.858Z,1017.91
2022-08-30T04:53:18.830Z,1017.91
2022-08-30T04:54:18.829Z,1017.90
2022-08-30T04:55:20.363Z,1017.94
2022-08-30T04:56:18.798Z,1017.93
2022-08-30T04:57:18.787Z,1017.91
2022-08-30T04:58:18.783Z,1017.91
2022-08-30T04:59:18.766Z,1017.91
2022-08-30T05:00:18.755Z,1017.93
2022-08-30T05:01:20.083Z,1017.90
2022-08-30T05:02:18.742Z,1017.87
2022-08-30T05:03:18.785Z,1017.90
2022-08-30T05:04:18.717Z,1017.91
2022-08-30T05:05:18.700Z,1017.87
2022-08-30T05:06:18.689Z,1017.90
2022-08-30T05:07:18.683Z,1017.86
2022-08-30T05:08:23.248Z,1017.89
2022-08-30T05:09:19.686Z,1017.91
2022-08-30T05:10:18.645Z,1017.93
2022-08-30T05:11:18.634Z,1017.95
2022-08-30T05:12:18.623Z,1017.93
2022-08-30T05:13:18.734Z,1017.98
2022-08-30T05:14:18.603Z,1017.95
2022-08-30T05:15:18.597Z,1017.98
2022-08-30T05:16:18.621Z,1017.93
2022-08-30T05:17:18.570Z,1017.97
2022-08-30T05:18:18.562Z,1017.97
2022-08-30T05:19:18.545Z,1017.99
2022-08-30T05:20:18.538Z,1018.01
2022-08-30T05:21:18.546Z,1017.99
2022-08-30T05:22:18.514Z,1018.01
2022-08-30T05:23:18.751Z,1018.04
2022-08-30T05:24:18.492Z,1018.04
2022-08-30T05:25:18.481Z,1018.05
2022-08-30T05:26:18.471Z,1018.09
2022-08-30T05:27:18.475Z,1018.09
2022-08-30T05:28:20.979Z,1018.09
2022-08-30T05:29:18.436Z,1018.09
2022-08-30T05:30:18.428Z,1018.10
2022-08-30T05:31:18.459Z,1018.09
2022-08-30T05:32:18.405Z,1018.11
2022-08-30T05:33:18.415Z,1018.09
2022-08-30T05:34:18.387Z,1018.06
2022-08-30T05:35:22.200Z,1018.05
2022-08-30T05:36:19.360Z,1018.07
2022-08-30T05:37:18.349Z,1018.08
2022-08-30T05:38:18.506Z,1018.05
2022-08-30T05:39:18.335Z,1018.10
2022-08-30T05:40:18.394Z,1018.05
2022-08-30T05:41:18.306Z,1018.07
2022-08-30T05:42:18.301Z,1018.08
2022-08-30T05:43:18.284Z,1018.08
2022-08-30T05:44:18.276Z,1018.08
2022-08-30T05:45:18.292Z,1018.06
2022-08-30T05:46:18.347Z,1018.05
2022-08-30T05:47:18.240Z,1018.07
2022-08-30T05:48:18.416Z,1018.08
2022-08-30T05:49:18.226Z,1018.08
2022-08-30T05:50:18.208Z,1018.12
2022-08-30T05:51:18.203Z,1018.12
2022-08-30T05:52:18.185Z,1018.13
2022-08-30T05:53:18.184Z,1018.15
2022-08-30T05:54:18.163Z,1018.11
2022-08-30T05:55:18.154Z,1018.12
2022-08-30T05:56:18.142Z,1018.13
2022-08-30T05:57:18.137Z,1018.15
2022-08-30T05:58:18.437Z,1018.13
2022-08-30T05:59:18.109Z,1018.16
2022-08-30T06:00:18.099Z,1018.14
2022-08-30T06:01:18.087Z,1018.16
2022-08-30T06:02:18.156Z,1018.17
2022-08-30T06:03:18.116Z,1018.19
2022-08-30T06:04:18.054Z,1018.17
2022-08-30T06:05:18.043Z,1018.16
2022-08-30T06:06:18.033Z,1018.19
2022-08-30T06:07:21.112Z,1018.15
2022-08-30T06:08:18.305Z,1018.19
2022-08-30T06:09:18.020Z,1018.17
2022-08-30T06:10:17.989Z,1018.18
2022-08-30T06:11:17.978Z,1018.18
2022-08-30T06:12:17.967Z,1018.20
2022-08-30T06:13:17.955Z,1018.19
2022-08-30T06:14:17.946Z,1018.21
2022-08-30T06:15:17.940Z,1018.20
2022-08-30T06:16:18.050Z,1018.22
2022-08-30T06:17:17.912Z,1018.25
2022-08-30T06:18:18.224Z,1018.21
2022-08-30T06:19:18.889Z,1018.22
2022-08-30T06:20:17.879Z,1018.22
2022-08-30T06:21:17.874Z,1018.21
2022-08-30T06:22:17.858Z,1018.19
2022-08-30T06:23:17.847Z,1018.23
2022-08-30T06:24:17.835Z,1018.19
2022-08-30T06:25:17.824Z,1018.17
2022-08-30T06:26:17.813Z,1018.20
2022-08-30T06:27:17.833Z,1018.20
2022-08-30T06:28:17.963Z,1018.22
2022-08-30T06:29:17.781Z,1018.20
2022-08-30T06:30:18.978Z,1018.23
2022-08-30T06:31:17.811Z,1018.22
2022-08-30T06:32:17.750Z,1018.23
2022-08-30T06:33:17.743Z,1018.26
2022-08-30T06:34:17.728Z,1018.28
2022-08-30T06:35:17.720Z,1018.27
2022-08-30T06:36:17.704Z,1018.24
2022-08-30T06:37:29.881Z,1018.28
2022-08-30T06:38:18.689Z,1018.29
2022-08-30T06:39:17.671Z,1018.28
2022-08-30T06:40:17.705Z,1018.23
2022-08-30T06:41:17.649Z,1018.29
2022-08-30T06:42:17.638Z,1018.32
2022-08-30T06:43:17.632Z,1018.32
2022-08-30T06:44:17.637Z,1018.34
2022-08-30T06:45:17.607Z,1018.29
2022-08-30T06:46:17.637Z,1018.38
2022-08-30T06:47:17.584Z,1018.37
2022-08-30T06:48:17.810Z,1018.35
2022-08-30T06:49:17.562Z,1018.35
2022-08-30T06:50:17.634Z,1018.41
2022-08-30T06:51:17.541Z,1018.38
2022-08-30T06:52:17.533Z,1018.35
2022-08-30T06:53:17.519Z,1018.38
2022-08-30T06:54:17.508Z,1018.36
2022-08-30T06:55:17.497Z,1018.39
2022-08-30T06:56:17.496Z,1018.36
2022-08-30T06:57:17.475Z,1018.35
2022-08-30T06:58:17.703Z,1018.37
2022-08-30T06:59:17.454Z,1018.41
2022-08-30T07:00:17.443Z,1018.42
2022-08-30T07:01:17.431Z,1018.41
2022-08-30T07:02:17.506Z,1018.47
2022-08-30T07:03:17.494Z,1018.45
2022-08-30T07:04:17.401Z,1018.45
2022-08-30T07:05:18.994Z,1018.44
2022-08-30T07:06:17.378Z,1018.42
2022-08-30T07:07:17.366Z,1018.41
2022-08-30T07:08:17.542Z,1018.41
2022-08-30T07:09:17.386Z,1018.39
2022-08-30T07:10:17.334Z,1018.38
2022-08-30T07:11:17.323Z,1018.38
2022-08-30T07:12:17.313Z,1018.41
2022-08-30T07:13:17.472Z,1018.36
2022-08-30T07:14:17.297Z,1018.36
2022-08-30T07:15:17.280Z,1018.39
2022-08-30T07:16:17.326Z,1018.42
2022-08-30T07:17:17.257Z,1018.43
2022-08-30T07:18:17.248Z,1018.40
2022-08-30T07:19:20.444Z,1018.43
2022-08-30T07:20:17.234Z,1018.44
2022-08-30T07:21:17.215Z,1018.45
2022-08-30T07:22:17.203Z,1018.49
2022-08-30T07:23:17.390Z,1018.45
2022-08-30T07:24:17.183Z,1018.48
2022-08-30T07:25:17.170Z,1018.44
2022-08-30T07:26:17.167Z,1018.48
2022-08-30T07:27:17.149Z,1018.50
2022-08-30T07:28:17.138Z,1018.48
2022-08-30T07:29:17.128Z,1018.52
2022-08-30T07:30:17.118Z,1018.50
2022-08-30T07:31:17.124Z,1018.49
2022-08-30T07:32:17.126Z,1018.51
2022-08-30T07:33:17.293Z,1018.51
2022-08-30T07:34:17.072Z,1018.50
2022-08-30T07:35:17.061Z,1018.50
2022-08-30T07:36:17.051Z,1018.48
2022-08-30T07:37:18.127Z,1018.53
2022-08-30T07:38:17.036Z,1018.53
2022-08-30T07:39:17.025Z,1018.52
2022-08-30T07:40:17.121Z,1018.53
2022-08-30T07:41:16.997Z,1018.55
2022-08-30T07:42:16.986Z,1018.55
2022-08-30T07:43:17.061Z,1018.57
2022-08-30T07:44:16.971Z,1018.58
2022-08-30T07:45:16.954Z,1018.57
2022-08-30T07:46:17.009Z,1018.61
2022-08-30T07:47:16.931Z,1018.59
2022-08-30T07:48:16.921Z,1018.57
2022-08-30T07:49:16.916Z,1018.60
2022-08-30T07:50:16.914Z,1018.60
2022-08-30T07:51:16.887Z,1018.59
2022-08-30T07:52:16.876Z,1018.63
2022-08-30T07:53:17.013Z,1018.62
2022-08-30T07:54:16.856Z,1018.63
2022-08-30T07:55:16.843Z,1018.63
2022-08-30T07:56:16.839Z,1018.66
2022-08-30T07:57:16.823Z,1018.66
2022-08-30T07:58:16.980Z,1018.66
2022-08-30T07:59:16.802Z,1018.65
2022-08-30T08:00:16.791Z,1018.65
2022-08-30T08:01:16.875Z,1018.63
2022-08-30T08:02:16.789Z,1018.63
2022-08-30T08:03:16.756Z,1018.61
2022-08-30T08:04:16.746Z,1018.61
2022-08-30T08:05:18.724Z,1018.65
2022-08-30T08:06:16.725Z,1018.64
2022-08-30T08:07:16.713Z,1018.68
2022-08-30T08:08:16.902Z,1018.74
2022-08-30T08:09:16.692Z,1018.72
2022-08-30T08:10:16.685Z,1018.73
2022-08-30T08:11:16.716Z,1018.72
2022-08-30T08:12:16.669Z,1018.72
2022-08-30T08:13:16.651Z,1018.72
2022-08-30T08:14:16.645Z,1018.73
2022-08-30T08:15:16.627Z,1018.68
2022-08-30T08:16:16.650Z,1018.67
2022-08-30T08:17:16.607Z,1018.76
2022-08-30T08:18:16.736Z,1018.73
2022-08-30T08:19:16.583Z,1018.73
2022-08-30T08:20:16.603Z,1018.73
2022-08-30T08:21:16.561Z,1018.76
2022-08-30T08:22:21.328Z,1018.74
2022-08-30T08:23:17.537Z,1018.77
2022-08-30T08:24:16.528Z,1018.77
2022-08-30T08:25:16.516Z,1018.79
2022-08-30T08:26:16.512Z,1018.74
2022-08-30T08:27:16.502Z,1018.77
2022-08-30T08:28:16.648Z,1018.74
2022-08-30T08:29:16.474Z,1018.77
2022-08-30T08:30:16.462Z,1018.77
2022-08-30T08:31:16.516Z,1018.74
2022-08-30T08:32:16.447Z,1018.72
2022-08-30T08:33:16.450Z,1018.77
2022-08-30T08:34:16.420Z,1018.76
2022-08-30T08:35:16.409Z,1018.77
2022-08-30T08:36:16.396Z,1018.81
2022-08-30T08:37:16.389Z,1018.81
2022-08-30T08:38:16.570Z,1018.81
2022-08-30T08:39:16.364Z,1018.82
2022-08-30T08:40:16.468Z,1018.85
2022-08-30T08:41:16.345Z,1018.83
2022-08-30T08:42:16.333Z,1018.84
2022-08-30T08:43:16.322Z,1018.84
2022-08-30T08:44:16.326Z,1018.83
2022-08-30T08:45:16.300Z,1018.84
2022-08-30T08:46:16.438Z,1018.86
2022-08-30T08:47:16.279Z,1018.86
2022-08-30T08:48:16.482Z,1018.83
2022-08-30T08:49:16.256Z,1018.86
2022-08-30T08:50:17.313Z,1018.88
2022-08-30T08:51:16.234Z,1018.85
2022-08-30T08:52:16.222Z,1018.88
2022-08-30T08:53:20.467Z,1018.93
2022-08-30T08:54:17.202Z,1018.87
2022-08-30T08:55:16.189Z,1018.86
2022-08-30T08:56:16.186Z,1018.89
2022-08-30T08:57:17.756Z,1018.88
2022-08-30T08:58:16.383Z,1018.89
2022-08-30T08:59:16.151Z,1018.91
2022-08-30T09:00:16.137Z,1018.91
2022-08-30T09:01:16.241Z,1018.88
2022-08-30T09:02:16.121Z,1018.92
2022-08-30T09:03:16.108Z,1018.93
2022-08-30T09:04:16.093Z,1018.90
2022-08-30T09:05:16.141Z,1018.92
2022-08-30T09:06:16.071Z,1018.95
2022-08-30T09:07:16.060Z,1018.98
2022-08-30T09:08:16.055Z,1018.94
2022-08-30T09:09:16.037Z,1018.88
2022-08-30T09:10:18.338Z,1018.92
2022-08-30T09:11:17.021Z,1018.92
2022-08-30T09:12:16.005Z,1018.91
2022-08-30T09:13:16.417Z,1018.90
2022-08-30T09:14:15.990Z,1018.91
2022-08-30T09:15:15.977Z,1018.95
2022-08-30T09:17:16.959Z,1018.92
2022-08-30T09:18:19.267Z,1018.94
2022-08-30T09:19:15.928Z,1018.91
2022-08-30T09:20:15.935Z,1018.92
2022-08-30T09:21:15.917Z,1018.90
2022-08-30T09:22:15.897Z,1018.90
2022-08-30T09:23:15.893Z,1018.87
2022-08-30T09:24:15.875Z,1018.92
2022-08-30T09:25:16.876Z,1018.90
2022-08-30T09:26:15.854Z,1018.93
2022-08-30T09:27:15.842Z,1018.93
2022-08-30T09:28:15.897Z,1018.95
2022-08-30T09:29:15.820Z,1018.94
2022-08-30T09:30:15.809Z,1018.91
2022-08-30T09:31:15.831Z,1018.95
2022-08-30T09:32:25.277Z,1018.92
2022-08-30T09:33:16.779Z,1018.94
2022-08-30T09:34:15.766Z,1018.91
2022-08-30T09:35:15.762Z,1018.92
2022-08-30T09:36:15.744Z,1018.94
2022-08-30T09:37:15.742Z,1018.91
2022-08-30T09:38:15.868Z,1018.90
2022-08-30T09:39:15.711Z,1018.92
2022-08-30T09:40:15.815Z,1018.90
2022-08-30T09:41:15.689Z,1018.92
2022-08-30T09:42:15.679Z,1018.95
2022-08-30T09:43:15.699Z,1018.96
2022-08-30T09:44:15.658Z,1018.93
2022-08-30T09:45:15.647Z,1018.98
2022-08-30T09:46:16.277Z,1018.90
2022-08-30T09:47:15.625Z,1018.95
2022-08-30T09:48:15.788Z,1018.93
2022-08-30T09:49:15.608Z,1018.93
2022-08-30T09:50:15.596Z,1018.93
2022-08-30T09:51:15.580Z,1018.92
2022-08-30T09:52:15.570Z,1018.93
2022-08-30T09:53:15.560Z,1018.94
2022-08-30T09:54:18.356Z,1018.93
2022-08-30T09:55:15.544Z,1018.94
2022-08-30T09:56:15.528Z,1018.92
2022-08-30T09:57:15.517Z,1018.92
2022-08-30T09:58:15.505Z,1018.98
2022-08-30T09:59:15.495Z,1018.93
2022-08-30T10:00:15.489Z,1018.92
2022-08-30T10:01:15.510Z,1018.94
2022-08-30T10:02:15.514Z,1018.90
2022-08-30T10:03:26.153Z,1018.94
2022-08-30T10:04:16.439Z,1018.93
2022-08-30T10:05:15.434Z,1018.97
2022-08-30T10:06:15.428Z,1018.93
2022-08-30T10:07:15.407Z,1018.89
2022-08-30T10:08:15.408Z,1018.92
2022-08-30T10:09:15.393Z,1018.89
2022-08-30T10:10:15.373Z,1018.89
2022-08-30T10:11:15.363Z,1018.88
2022-08-30T10:12:15.476Z,1018.86
2022-08-30T10:13:15.503Z,1018.89
2022-08-30T10:14:15.331Z,1018.88
2022-08-30T10:15:15.321Z,1018.85
2022-08-30T10:16:15.309Z,1018.87
2022-08-30T10:17:15.297Z,1018.86
2022-08-30T10:18:15.305Z,1018.86
2022-08-30T10:19:15.276Z,1018.89
2022-08-30T10:20:15.267Z,1018.89
2022-08-30T10:21:19.031Z,1018.81
2022-08-30T10:22:15.246Z,1018.84
2022-08-30T10:23:15.235Z,1018.85
2022-08-30T10:24:20.978Z,1018.83
2022-08-30T10:25:16.363Z,1018.87
2022-08-30T10:26:15.202Z,1018.87
2022-08-30T10:27:15.209Z,1018.88
2022-08-30T10:28:15.177Z,1018.87
2022-08-30T10:29:15.167Z,1018.84
2022-08-30T10:30:15.164Z,1018.88
2022-08-30T10:31:15.145Z,1018.82
2022-08-30T10:32:15.136Z,1018.85
2022-08-30T10:33:15.123Z,1018.87
2022-08-30T10:34:15.115Z,1018.88
2022-08-30T10:35:18.774Z,1018.85
2022-08-30T10:36:15.099Z,1018.88
2022-08-30T10:37:16.577Z,1018.87
2022-08-30T10:38:15.070Z,1018.84
2022-08-30T10:39:15.059Z,1018.83
2022-08-30T10:40:15.067Z,1018.86
2022-08-30T10:41:15.036Z,1018.82
2022-08-30T10:42:15.031Z,1018.84
2022-08-30T10:43:15.015Z,1018.84
2022-08-30T10:44:15.004Z,1018.78
2022-08-30T10:45:14.994Z,1018.84
2022-08-30T10:46:14.984Z,1018.81
2022-08-30T10:47:22.997Z,1018.78
2022-08-30T10:48:15.990Z,1018.82
2022-08-30T10:49:14.955Z,1018.81
2022-08-30T10:50:14.940Z,1018.73
2022-08-30T10:51:14.929Z,1018.78
2022-08-30T10:52:14.917Z,1018.73
2022-08-30T10:53:14.919Z,1018.78
2022-08-30T10:54:18.500Z,1018.73
2022-08-30T10:55:14.885Z,1018.77
2022-08-30T10:56:14.874Z,1018.74
2022-08-30T10:57:14.864Z,1018.78
2022-08-30T10:58:14.853Z,1018.77
2022-08-30T10:59:14.864Z,1018.76
2022-08-30T11:00:14.838Z,1018.76
2022-08-30T11:01:14.864Z,1018.77
2022-08-30T11:02:14.813Z,1018.78
2022-08-30T11:03:14.801Z,1018.74
2022-08-30T11:04:14.788Z,1018.75
2022-08-30T11:05:14.778Z,1018.75
2022-08-30T11:06:14.775Z,1018.74
2022-08-30T11:07:14.754Z,1018.75
2022-08-30T11:08:22.126Z,1018.75
2022-08-30T11:09:15.737Z,1018.74
2022-08-30T11:10:14.722Z,1018.72
2022-08-30T11:11:14.712Z,1018.77
2022-08-30T11:12:14.705Z,1018.73
2022-08-30T11:13:14.688Z,1018.74
2022-08-30T11:14:14.679Z,1018.73
2022-08-30T11:15:14.668Z,1018.75
2022-08-30T11:16:14.659Z,1018.76
2022-08-30T11:17:14.646Z,1018.73
2022-08-30T11:18:14.641Z,1018.72
2022-08-30T11:19:14.623Z,1018.76
2022-08-30T11:20:14.613Z,1018.76
2022-08-30T11:21:14.601Z,1018.75
2022-08-30T11:22:14.594Z,1018.73
2022-08-30T11:23:14.582Z,1018.78
2022-08-30T11:24:14.575Z,1018.79
2022-08-30T11:25:14.561Z,1018.77
2022-08-30T11:26:15.968Z,1018.74
2022-08-30T11:27:15.537Z,1018.73
2022-08-30T11:28:17.139Z,1018.78
2022-08-30T11:29:15.524Z,1018.79
2022-08-30T11:30:19.236Z,1018.78
2022-08-30T11:31:15.769Z,1018.78
2022-08-30T11:32:14.484Z,1018.80
2022-08-30T11:33:14.471Z,1018.77
2022-08-30T11:34:14.462Z,1018.72
2022-08-30T11:35:14.457Z,1018.73
2022-08-30T11:36:14.441Z,1018.68
2022-08-30T11:37:14.428Z,1018.66
2022-08-30T11:38:14.418Z,1018.67
2022-08-30T11:39:14.410Z,1018.64
2022-08-30T11:40:17.345Z,1018.58
2022-08-30T11:41:14.399Z,1018.61
2022-08-30T11:42:14.378Z,1018.64
2022-08-30T11:43:14.365Z,1018.58
2022-08-30T11:44:14.355Z,1018.58
2022-08-30T11:45:14.346Z,1018.54
2022-08-30T11:46:14.681Z,1018.47
2022-08-30T11:47:14.328Z,1018.51
2022-08-30T11:48:14.312Z,1018.47
2022-08-30T11:49:14.299Z,1018.47
2022-08-30T11:50:14.326Z,1018.43
2022-08-30T11:51:14.279Z,1018.40
2022-08-30T11:52:28.061Z,1018.40
2022-08-30T11:53:15.549Z,1018.39
2022-08-30T11:54:14.246Z,1018.49
2022-08-30T11:55:14.235Z,1018.43
2022-08-30T11:56:14.224Z,1018.44
2022-08-30T11:57:14.213Z,1018.43
2022-08-30T11:58:14.202Z,1018.40
2022-08-30T11:59:14.691Z,1018.38
2022-08-30T12:00:14.181Z,1018.38
2022-08-30T12:01:32.033Z,1018.39
2022-08-30T12:02:15.308Z,1018.37
2022-08-30T12:03:14.381Z,1018.43
2022-08-30T12:04:15.403Z,1018.40
2022-08-30T12:05:14.134Z,1018.39
2022-08-30T12:06:14.116Z,1018.38
2022-08-30T12:07:14.107Z,1018.36